Time;durP1;ratioP1;P1;durP2;ratioP2;P2;SDS_P1;SDS_P2;PMS_P1;PMS_P2;Temp;Humidity;BMP_temperature;BMP_pressure;BME280_temperature;BME280_humidity;BME280_pressure;Samples;Min_cycle;Max_cycle;Signal;HPM_P1;HPM_P2
2022/01/08 00:02:15;;;;;;;2.13;1.30;;;14.10;63.00;;;;;;5041954;28;20049;-70
2022/01/08 00:04:42;;;;;;;2.20;1.23;;;14.10;65.10;;;;;;5031587;28;20054;-70
2022/01/08 00:07:09;;;;;;;1.60;1.20;;;14.10;65.10;;;;;;5031444;28;20136;-70
2022/01/08 00:09:36;;;;;;;2.00;1.25;;;;;;;;;;5030405;28;20144;-70
2022/01/08 00:12:03;;;;;;;1.90;1.17;;;13.80;64.70;;;;;;5031318;28;20059;-70
2022/01/08 00:14:30;;;;;;;1.52;1.20;;;;;;;;;;5030334;28;20156;-70
2022/01/08 00:16:58;;;;;;;2.13;1.30;;;13.90;65.20;;;;;;5031185;28;20487;-70
2022/01/08 00:19:26;;;;;;;1.98;1.40;;;14.10;65.10;;;;;;5031214;28;20133;-70
2022/01/08 00:21:52;;;;;;;2.50;1.33;;;13.90;62.70;;;;;;5029991;28;20483;-70
2022/01/08 00:24:19;;;;;;;1.73;1.10;;;13.90;65.00;;;;;;5030087;28;20053;-70
2022/01/08 00:26:46;;;;;;;1.85;1.23;;;13.90;60.60;;;;;;5029864;28;20561;-70
2022/01/08 00:29:12;;;;;;;1.80;1.10;;;13.80;61.40;;;;;;5031025;28;20136;-70
2022/01/08 00:31:40;;;;;;;2.00;1.40;;;14.20;65.40;;;;;;5032613;28;20140;-70
2022/01/08 00:34:07;;;;;;;2.17;1.33;;;14.00;65.10;;;;;;5034755;28;20053;-70
2022/01/08 00:36:35;;;;;;;3.35;1.20;;;13.80;56.60;;;;;;5033347;28;20049;-70
2022/01/08 00:39:02;;;;;;;1.45;1.15;;;;;;;;;;5033471;28;20140;-70
2022/01/08 00:41:29;;;;;;;2.58;1.35;;;13.80;65.20;;;;;;5034397;28;20500;-70
2022/01/08 00:43:56;;;;;;;2.60;1.20;;;13.80;65.30;;;;;;5034258;28;20056;-70
2022/01/08 00:46:23;;;;;;;2.08;1.33;;;;;;;;;;5034269;28;20566;-70
2022/01/08 00:48:49;;;;;;;2.55;1.20;;;13.70;65.30;;;;;;5034600;28;20144;-70
2022/01/08 00:51:16;;;;;;;2.20;1.30;;;;;;;;;;5033276;28;20745;-70
2022/01/08 00:53:44;;;;;;;1.90;1.15;;;13.90;65.40;;;;;;5033398;28;20136;-70
2022/01/08 00:56:13;;;;;;;1.65;1.15;;;14.10;59.80;;;;;;5034119;28;20057;-70
2022/01/08 00:58:40;;;;;;;2.33;1.30;;;13.70;65.30;;;;;;5034015;28;20045;-70
2022/01/08 01:01:07;;;;;;;1.95;1.10;;;;;;;;;;5033168;28;20485;-70
2022/01/08 01:03:34;;;;;;;1.63;1.20;;;13.70;65.10;;;;;;5034119;28;20237;-70
2022/01/08 01:06:01;;;;;;;1.45;1.10;;;13.80;60.80;;;;;;5033849;28;20562;-70
2022/01/08 01:08:28;;;;;;;2.30;1.20;;;13.70;65.30;;;;;;5034122;28;20053;-70
2022/01/08 01:10:56;;;;;;;1.48;1.10;;;13.80;65.40;;;;;;5033691;28;20049;-70
2022/01/08 01:13:22;;;;;;;3.40;1.27;;;13.90;65.50;;;;;;5033006;28;20565;-70
2022/01/08 01:15:49;;;;;;;1.52;1.10;;;;;;;;;;5032520;28;20140;-70
2022/01/08 01:18:16;;;;;;;1.67;1.10;;;13.80;65.10;;;;;;5033737;28;20140;-70
2022/01/08 01:20:43;;;;;;;1.73;1.27;;;13.70;65.20;;;;;;5033787;28;20061;-70
2022/01/08 01:23:12;;;;;;;1.92;1.10;;;13.80;65.20;;;;;;5032516;28;20104;-70
2022/01/08 01:25:45;;;;;;;1.80;1.20;;;;;;;;;;5033221;28;20187;-70
2022/01/08 01:28:25;;;;;;;2.88;1.40;;;13.30;61.00;;;;;;5032553;28;20045;-70
2022/01/08 01:41:09;;;;;;;2.28;1.30;;;13.60;64.80;;;;;;5032462;28;20107;-70
2022/01/08 01:47:38;;;;;;;2.05;1.15;;;;;;;;;;5048493;28;20096;-70
2022/01/08 01:50:07;;;;;;;1.27;1.10;;;13.80;56.30;;;;;;5032207;28;20130;-70
2022/01/08 01:52:34;;;;;;;2.13;1.10;;;13.90;64.90;;;;;;5032959;28;20059;-70
2022/01/08 01:55:01;;;;;;;2.58;1.23;;;13.90;64.70;;;;;;5033110;28;20498;-70
2022/01/08 01:57:28;;;;;;;1.70;1.15;;;;;;;;;;5031425;28;20133;-70
2022/01/08 01:59:56;;;;;;;2.58;1.00;;;14.00;64.70;;;;;;5031687;28;20060;-70
2022/01/08 02:02:23;;;;;;;1.48;1.00;;;;;;;;;;5031593;28;20131;-70
2022/01/08 02:04:50;;;;;;;1.73;1.30;;;14.00;64.90;;;;;;5031885;28;20084;-70
2022/01/08 02:07:16;;;;;;;1.70;1.10;;;14.00;60.70;;;;;;5031433;28;20136;-70
2022/01/08 02:09:43;;;;;;;1.98;1.10;;;14.00;64.50;;;;;;5032755;28;20136;-70
2022/01/08 02:12:15;;;;;;;2.15;1.30;;;14.00;64.50;;;;;;5032955;28;20112;-70
2022/01/08 02:14:41;;;;;;;1.50;1.10;;;14.10;64.60;;;;;;5031793;28;20136;-70
2022/01/08 02:17:10;;;;;;;3.05;1.25;;;14.10;64.50;;;;;;5031184;28;20120;-70
2022/01/08 02:19:37;;;;;;;1.85;1.10;;;;;;;;;;5031648;28;20144;-70
2022/01/08 02:22:06;;;;;;;1.63;1.00;;;14.10;64.50;;;;;;5031348;28;20100;-70
2022/01/08 02:24:33;;;;;;;1.48;1.10;;;14.00;58.60;;;;;;5031507;28;20132;-70
2022/01/08 02:26:59;;;;;;;1.45;1.13;;;14.30;64.60;;;;;;5032385;28;20124;-70
2022/01/08 02:29:26;;;;;;;2.22;1.20;;;14.20;64.60;;;;;;5031713;28;20053;-70
2022/01/08 02:31:54;;;;;;;1.30;1.10;;;13.80;59.50;;;;;;5033595;28;20045;-70
2022/01/08 02:34:21;;;;;;;1.70;1.00;;;;;;;;;;5031393;28;20053;-70
2022/01/08 02:36:48;;;;;;;1.75;1.10;;;;;;;;;;5030840;28;20130;-70
2022/01/08 02:39:16;;;;;;;2.83;1.30;;;14.10;64.30;;;;;;5031100;28;20125;-70
2022/01/08 02:41:43;;;;;;;1.65;1.10;;;;;;;;;;5031045;28;20138;-70
2022/01/08 02:44:10;;;;;;;1.15;0.90;;;14.20;64.30;;;;;;5032347;28;20053;-70
2022/01/08 02:46:38;;;;;;;1.95;1.10;;;14.10;64.40;;;;;;5030995;28;20140;-70
2022/01/08 02:49:05;;;;;;;1.75;1.17;;;;;;;;;;5031072;28;20144;-70
2022/01/08 02:51:34;;;;;;;2.13;1.02;;;14.10;64.40;;;;;;5031213;28;20487;-70
2022/01/08 02:54:01;;;;;;;1.55;1.00;;;14.30;64.40;;;;;;5029988;28;20084;-70
2022/01/08 02:56:29;;;;;;;1.73;1.20;;;14.20;55.70;;;;;;5030871;28;20129;-70
2022/01/08 02:58:56;;;;;;;2.03;1.10;;;;;;;;;;5031027;28;20057;-70
2022/01/08 03:01:22;;;;;;;1.90;1.20;;;14.20;64.00;;;;;;5033002;28;20056;-70
2022/01/08 03:03:50;;;;;;;1.45;1.05;;;14.10;64.00;;;;;;5031719;28;20076;-70
2022/01/08 03:06:16;;;;;;;2.05;0.98;;;14.30;63.90;;;;;;5030592;28;20061;-70
2022/01/08 03:08:43;;;;;;;1.48;1.10;;;14.00;63.90;;;;;;5030830;28;20136;-70
2022/01/08 03:11:10;;;;;;;1.50;1.10;;;;;;;;;;5030834;28;20483;-70
2022/01/08 03:13:38;;;;;;;1.63;1.20;;;14.20;55.60;;;;;;5030501;28;20477;-70
2022/01/08 03:16:05;;;;;;;1.50;1.10;;;13.80;63.90;;;;;;5030474;28;20505;-70
2022/01/08 03:18:33;;;;;;;1.58;1.00;;;15.20;64.50;;;;;;5032008;28;20060;-70
2022/01/08 03:21:04;;;;;;;1.77;1.17;;;;;;;;;;5031651;28;20132;-70
2022/01/08 03:23:38;;;;;;;2.20;1.20;;;13.90;63.80;;;;;;5030738;28;20144;-70
2022/01/08 03:26:05;;;;;;;2.28;1.00;;;14.10;63.90;;;;;;5031413;28;20064;-70
2022/01/08 03:28:32;;;;;;;2.47;1.40;;;13.70;63.90;;;;;;5050368;28;20136;-70
2022/01/08 03:31:00;;;;;;;1.33;0.93;;;14.20;64.10;;;;;;5051701;28;20127;-70
2022/01/08 03:33:27;;;;;;;1.83;1.20;;;14.30;64.10;;;;;;5050625;28;20078;-70
2022/01/08 03:35:54;;;;;;;1.90;1.10;;;14.30;64.20;;;;;;5049824;28;20382;-70
2022/01/08 03:38:21;;;;;;;2.28;1.20;;;;;;;;;;5050169;28;20128;-70
2022/01/08 03:40:47;;;;;;;1.65;1.20;;;13.80;63.70;;;;;;5050398;28;20132;-70
2022/01/08 03:43:14;;;;;;;1.95;1.17;;;14.40;63.90;;;;;;5050253;28;20128;-70
2022/01/08 03:45:41;;;;;;;2.03;1.15;;;14.30;59.30;;;;;;5051460;28;20141;-70
2022/01/08 03:48:26;;;;;;;1.48;1.15;;;14.20;64.00;;;;;;5050379;28;20134;-70
2022/01/08 03:50:53;;;;;;;2.00;1.10;;;;;;;;;;5051090;28;20045;-70
2022/01/08 03:53:20;;;;;;;1.80;1.20;;;14.20;63.80;;;;;;5048849;28;20057;-70
2022/01/08 03:55:47;;;;;;;2.20;1.10;;;14.20;63.70;;;;;;5051139;28;20124;-70
2022/01/08 03:58:13;;;;;;;2.00;1.33;;;14.30;61.80;;;;;;5050033;28;20132;-70
2022/01/08 04:00:40;;;;;;;1.70;1.10;;;14.20;63.90;;;;;;5050231;28;20136;-70
2022/01/08 04:03:07;;;;;;;1.88;1.13;;;;;;;;;;5051209;28;20059;-70
2022/01/08 04:05:35;;;;;;;3.33;1.50;;;14.30;57.70;;;;;;5052135;28;20140;-70
2022/01/08 04:08:02;;;;;;;2.03;1.20;;;14.10;63.50;;;;;;5054270;28;20466;-70
2022/01/08 04:10:30;;;;;;;1.88;1.10;;;14.20;63.80;;;;;;5053386;28;20055;-70
2022/01/08 04:13:04;;;;;;;1.38;1.10;;;;;;;;;;5053647;28;20167;-70
2022/01/08 04:15:33;;;;;;;2.40;1.15;;;14.20;63.80;;;;;;5054794;28;20056;-70
2022/01/08 04:18:00;;;;;;;2.10;1.20;;;;;;;;;;5054486;28;20045;-70
2022/01/08 04:20:26;;;;;;;1.45;1.10;;;14.30;63.70;;;;;;5053861;28;20482;-70
2022/01/08 04:22:55;;;;;;;1.73;1.20;;;14.30;55.30;;;;;;5053726;28;20132;-70
2022/01/08 04:25:23;;;;;;;1.30;1.00;;;14.30;55.30;;;;;;5054712;28;20064;-70
2022/01/08 04:27:49;;;;;;;3.13;1.30;;;14.30;63.80;;;;;;5051419;28;20053;-70
2022/01/08 04:30:16;;;;;;;1.27;1.05;;;14.30;62.40;;;;;;5054549;28;20085;-70
2022/01/08 04:32:43;;;;;;;2.63;1.30;;;14.10;63.60;;;;;;5053225;28;20053;-70
2022/01/08 04:35:10;;;;;;;1.67;1.33;;;;;;;;;;5053593;28;20052;-70
2022/01/08 04:37:37;;;;;;;1.27;1.17;;;14.10;63.40;;;;;;5053249;28;20409;-70
2022/01/08 04:40:06;;;;;;;1.95;1.20;;;14.20;57.40;;;;;;5053398;28;20132;-70
2022/01/08 04:42:33;;;;;;;2.00;1.10;;;14.10;63.40;;;;;;5053259;28;20144;-70
2022/01/08 04:45:00;;;;;;;2.60;1.27;;;;;;;;;;5051593;28;20045;-70
2022/01/08 04:47:27;;;;;;;1.27;1.00;;;14.30;63.40;;;;;;5054095;28;20135;-70
2022/01/08 04:49:54;;;;;;;1.88;1.10;;;14.10;63.60;;;;;;5053248;28;20159;-70
2022/01/08 04:52:21;;;;;;;1.25;1.00;;;;;;;;;;5053235;28;20144;-70
2022/01/08 04:54:47;;;;;;;1.33;1.00;;;14.40;63.70;;;;;;5054031;28;20048;-70
2022/01/08 04:57:15;;;;;;;1.45;1.10;;;14.20;63.70;;;;;;5052538;28;20053;-70
2022/01/08 04:59:42;;;;;;;2.40;1.00;;;13.90;63.60;;;;;;5053090;28;20565;-70
2022/01/08 05:02:09;;;;;;;2.47;1.20;;;14.30;62.80;;;;;;5053656;28;20055;-71
2022/01/08 05:04:36;;;;;;;1.67;1.08;;;14.30;63.70;;;;;;5054173;28;20132;-71
2022/01/08 05:07:03;;;;;;;2.10;1.10;;;;;;;;;;5052889;28;20659;-70
2022/01/08 05:09:30;;;;;;;1.58;1.10;;;14.10;63.50;;;;;;5052674;28;20472;-70
2022/01/08 05:11:56;;;;;;;2.72;1.13;;;13.80;63.10;;;;;;5052800;28;20136;-70
2022/01/08 05:14:26;;;;;;;2.15;1.20;;;14.10;55.90;;;;;;5053806;28;20136;-71
2022/01/08 05:16:58;;;;;;;1.73;1.10;;;;;;;;;;5052143;28;20136;-71
2022/01/08 05:19:37;;;;;;;2.03;1.10;;;;;;;;;;5052801;28;20056;-71
2022/01/08 05:22:05;;;;;;;1.10;1.00;;;14.30;60.20;;;;;;5052451;28;20057;-70
2022/01/08 05:24:32;;;;;;;1.38;0.90;;;13.80;63.10;;;;;;5053669;28;20133;-70
2022/01/08 05:26:59;;;;;;;1.40;1.02;;;;;;;;;;5052412;28;20498;-70
2022/01/08 05:29:27;;;;;;;1.55;1.00;;;14.20;63.50;;;;;;5052718;28;20139;-70
2022/01/08 05:31:54;;;;;;;1.13;0.90;;;14.20;62.80;;;;;;5052547;28;20056;-71
2022/01/08 05:34:20;;;;;;;1.58;1.10;;;14.30;58.90;;;;;;5051768;28;20059;-71
2022/01/08 05:36:48;;;;;;;1.77;1.10;;;;;;;;;;5051895;28;20066;-71
2022/01/08 05:39:15;;;;;;;1.85;1.20;;;14.30;63.60;;;;;;5052153;28;20044;-71
2022/01/08 05:41:41;;;;;;;3.60;1.20;;;14.20;63.50;;;;;;5052363;28;20128;-70
2022/01/08 05:44:08;;;;;;;1.83;1.20;;;14.20;57.50;;;;;;5051752;28;20131;-70
2022/01/08 05:46:39;;;;;;;1.60;1.05;;;14.30;63.60;;;;;;5051960;28;20135;-70
2022/01/08 05:49:06;;;;;;;1.52;1.00;;;;;;;;;;5052250;28;20410;-70
2022/01/08 05:51:32;;;;;;;1.92;1.10;;;14.30;63.30;;;;;;5051491;28;20139;-70
2022/01/08 05:53:59;;;;;;;1.38;1.10;;;14.40;63.60;;;;;;5053105;28;20055;-71
2022/01/08 05:56:26;;;;;;;1.80;1.10;;;14.20;63.40;;;;;;5052052;28;20053;-71
2022/01/08 05:58:53;;;;;;;1.25;1.08;;;;;;;;;;5052725;28;20049;-71
2022/01/08 06:01:19;;;;;;;1.70;1.17;;;14.40;63.60;;;;;;5051832;28;20064;-71
2022/01/08 06:03:48;;;;;;;1.88;1.10;;;14.50;55.10;;;;;;5052777;28;20084;-71
2022/01/08 06:06:15;;;;;;;1.83;1.10;;;;;;;;;;5052432;28;20084;-70
2022/01/08 06:08:41;;;;;;;1.92;1.20;;;14.30;63.20;;;;;;5050197;28;20056;-70
2022/01/08 06:11:08;;;;;;;1.30;0.90;;;;;;;;;;5052603;28;20128;-71
2022/01/08 06:13:35;;;;;;;1.42;1.00;;;;;;;;;;5052813;28;20106;-71
2022/01/08 06:16:02;;;;;;;1.58;1.05;;;14.40;63.40;;;;;;5052203;28;20129;-71
2022/01/08 06:18:30;;;;;;;1.85;1.10;;;14.40;62.10;;;;;;5051353;28;20056;-71
2022/01/08 06:20:59;;;;;;;1.20;1.10;;;14.30;54.90;;;;;;5051504;28;20545;-71
2022/01/08 06:23:26;;;;;;;2.33;1.00;;;14.40;63.20;;;;;;5052552;28;20053;-71
2022/01/08 06:25:53;;;;;;;2.20;1.30;;;;;;;;;;5049332;28;20502;-71
2022/01/08 06:28:20;;;;;;;2.20;1.10;;;13.90;63.10;;;;;;5051353;28;20131;-71
2022/01/08 06:30:47;;;;;;;1.75;1.10;;;14.30;63.30;;;;;;5050977;28;20136;-71
2022/01/08 06:33:13;;;;;;;1.83;1.02;;;14.30;63.10;;;;;;5052322;28;20111;-71
2022/01/08 06:35:40;;;;;;;1.20;0.98;;;14.40;63.20;;;;;;5051281;28;20136;-71
2022/01/08 06:38:08;;;;;;;1.75;1.20;;;14.30;54.80;;;;;;5052305;28;20045;-71
2022/01/08 06:40:35;;;;;;;1.95;1.08;;;;;;;;;;5050837;28;20057;-71
2022/01/08 06:43:02;;;;;;;1.40;1.00;;;14.30;63.30;;;;;;5050343;28;20048;-71
2022/01/08 06:45:29;;;;;;;1.20;1.10;;;14.40;63.30;;;;;;5050872;28;20061;-71
2022/01/08 06:47:56;;;;;;;1.20;1.10;;;14.30;59.30;;;;;;5050797;28;20124;-71
2022/01/08 06:50:23;;;;;;;2.72;1.13;;;14.20;63.20;;;;;;5051917;28;20132;-71
2022/01/08 06:52:50;;;;;;;1.23;1.00;;;;;;;;;;5051186;28;20495;-71
2022/01/08 06:55:18;;;;;;;2.13;1.23;;;14.20;62.80;;;;;;5051756;28;20052;-71
2022/01/08 06:57:44;;;;;;;1.67;1.30;;;14.00;56.10;;;;;;5049720;28;20127;-71
2022/01/08 07:00:11;;;;;;;3.65;1.17;;;14.50;62.90;;;;;;5051378;28;20049;-71
2022/01/08 07:02:38;;;;;;;1.75;1.15;;;14.30;62.90;;;;;;5050847;28;20140;-71
2022/01/08 07:05:06;;;;;;;1.42;1.00;;;14.30;54.70;;;;;;5051786;28;20075;-71
2022/01/08 07:07:32;;;;;;;1.27;1.10;;;14.40;61.40;;;;;;5050467;28;20049;-71
2022/01/08 07:09:59;;;;;;;1.95;1.02;;;14.30;63.20;;;;;;5052135;28;20059;-70
2022/01/08 07:12:27;;;;;;;2.30;1.30;;;15.10;63.30;;;;;;5051572;28;20120;-70
2022/01/08 07:14:54;;;;;;;1.70;1.00;;;;;;;;;;5049858;28;20610;-70
2022/01/08 07:17:21;;;;;;;2.97;1.30;;;;;;;;;;5050565;28;20159;-70
2022/01/08 07:19:49;;;;;;;1.35;1.10;;;;;;;;;;5050320;28;20063;-70
2022/01/08 07:22:16;;;;;;;2.15;1.10;;;13.60;60.30;;;;;;5050303;28;20049;-70
2022/01/08 07:24:43;;;;;;;2.05;1.15;;;;;;;;;;5050743;28;20057;-70
2022/01/08 07:27:09;;;;;;;2.22;1.27;;;14.10;63.10;;;;;;5051167;28;20561;-70
2022/01/08 07:29:37;;;;;;;1.85;1.17;;;14.80;63.20;;;;;;5050445;28;20132;-70
2022/01/08 07:32:05;;;;;;;1.33;0.90;;;14.40;62.80;;;;;;5048116;28;20131;-70
2022/01/08 07:34:33;;;;;;;1.92;1.13;;;;;;;;;;5049711;28;20135;-70
2022/01/08 07:37:00;;;;;;;2.00;1.50;;;14.20;63.10;;;;;;5050001;28;20442;-70
2022/01/08 07:39:26;;;;;;;1.60;1.10;;;14.30;63.00;;;;;;5050693;28;20553;-70
2022/01/08 07:41:53;;;;;;;1.33;0.95;;;14.30;61.10;;;;;;5053954;28;20240;-70
2022/01/08 07:44:20;;;;;;;2.50;1.30;;;14.30;63.10;;;;;;5054493;28;20060;-70
2022/01/08 07:46:48;;;;;;;1.50;1.20;;;14.40;62.90;;;;;;5055330;28;20132;-70
2022/01/08 07:49:15;;;;;;;2.10;1.25;;;;;;;;;;5052575;28;20124;-70
2022/01/08 07:51:42;;;;;;;2.95;1.27;;;15.40;63.40;;;;;;5054100;28;20140;-70
2022/01/08 07:54:10;;;;;;;1.50;1.13;;;;;;;;;;5054252;28;20152;-70
2022/01/08 07:56:37;;;;;;;2.15;1.52;;;14.50;63.10;;;;;;5054160;28;20152;-70
2022/01/08 07:59:04;;;;;;;1.10;0.93;;;15.10;63.00;;;;;;5055263;28;20136;-70
2022/01/08 08:01:30;;;;;;;1.83;1.23;;;13.70;62.50;;;;;;5054036;28;20061;-70
2022/01/08 08:03:58;;;;;;;2.13;1.23;;;14.30;54.50;;;;;;5054259;28;20059;-70
2022/01/08 08:06:25;;;;;;;1.20;1.10;;;;;;;;;;5053322;28;20143;-70
2022/01/08 08:08:52;;;;;;;1.77;1.27;;;14.30;62.90;;;;;;5054955;28;20081;-70
2022/01/08 08:11:19;;;;;;;1.70;1.20;;;14.30;62.70;;;;;;5053369;28;20057;-70
2022/01/08 08:13:46;;;;;;;2.22;1.40;;;;;;;;;;5053329;28;20049;-72
2022/01/08 08:16:13;;;;;;;2.50;1.33;;;14.00;62.60;;;;;;5053369;28;20055;-72
2022/01/08 08:18:40;;;;;;;2.17;1.23;;;;;;;;;;5053854;28;20045;-71
2022/01/08 08:21:08;;;;;;;4.97;1.30;;;14.50;63.00;;;;;;5053832;28;20063;-72
2022/01/08 08:23:35;;;;;;;4.75;2.03;;;14.40;62.70;;;;;;5052195;28;20136;-72
2022/01/08 08:26:01;;;;;;;4.47;2.00;;;13.70;62.40;;;;;;5053691;28;20139;-71
2022/01/08 08:28:29;;;;;;;7.07;2.65;;;;;;;;;;5053551;28;20130;-72
2022/01/08 08:30:56;;;;;;;5.47;1.63;;;;;;;;;;5053861;28;20490;-71
2022/01/08 08:33:23;;;;;;;5.63;1.30;;;14.40;63.10;;;;;;5035663;28;20128;-71
2022/01/08 08:35:50;;;;;;;1.75;1.35;;;;;;;;;;5044788;28;20486;-71
2022/01/08 08:38:18;;;;;;;2.17;1.30;;;14.30;62.80;;;;;;5048554;28;20486;-71
2022/01/08 08:40:45;;;;;;;1.77;1.30;;;14.40;57.20;;;;;;5053851;28;20116;-72
2022/01/08 08:43:12;;;;;;;4.32;1.40;;;14.40;63.00;;;;;;5067336;28;20049;-72
2022/01/08 08:45:39;;;;;;;2.10;1.30;;;14.40;54.40;;;;;;5052685;28;20132;-72
2022/01/08 08:48:06;;;;;;;2.05;1.33;;;;;;;;;;5053071;28;20151;-72
2022/01/08 08:50:33;;;;;;;2.85;1.40;;;;;;;;;;5052050;28;20462;-72
2022/01/08 08:53:00;;;;;;;2.80;1.40;;;14.50;62.90;;;;;;5052667;28;20148;-72
2022/01/08 08:55:29;;;;;;;4.75;1.42;;;14.50;62.60;;;;;;5052008;28;20131;-72
2022/01/08 08:57:55;;;;;;;1.77;1.38;;;14.50;62.80;;;;;;5053009;28;20132;-72
2022/01/08 09:00:22;;;;;;;3.15;1.50;;;14.40;62.50;;;;;;5052129;28;20140;-72
2022/01/08 09:02:49;;;;;;;3.10;1.30;;;;;;;;;;5052922;28;20059;-72
2022/01/08 09:05:16;;;;;;;3.08;1.27;;;14.50;62.80;;;;;;5052540;28;20127;-72
2022/01/08 09:07:43;;;;;;;2.05;1.10;;;;;;;;;;5052263;28;20084;-72
2022/01/08 09:10:11;;;;;;;3.47;1.30;;;14.50;62.60;;;;;;5052570;28;20044;-72
2022/01/08 09:12:39;;;;;;;1.77;1.30;;;14.60;60.90;;;;;;5052420;28;20128;-72
2022/01/08 09:15:07;;;;;;;3.17;1.30;;;14.00;62.10;;;;;;5052096;28;20132;-73
2022/01/08 09:17:34;;;;;;;3.15;1.30;;;14.70;57.00;;;;;;5052324;28;20139;-73
2022/01/08 09:20:00;;;;;;;2.30;1.30;;;15.10;63.00;;;;;;5053714;28;20144;-73
2022/01/08 09:22:27;;;;;;;2.70;1.30;;;14.60;62.70;;;;;;5053776;28;20343;-73
2022/01/08 09:24:54;;;;;;;2.70;1.10;;;14.60;57.60;;;;;;5052806;28;20049;-73
2022/01/08 09:27:21;;;;;;;2.47;1.30;;;14.60;62.30;;;;;;5052737;28;20132;-73
2022/01/08 09:29:50;;;;;;;1.88;1.30;;;14.20;58.10;;;;;;5052629;28;20057;-73
2022/01/08 09:32:17;;;;;;;2.83;1.20;;;14.40;62.20;;;;;;5052076;28;20140;-72
2022/01/08 09:34:44;;;;;;;3.72;1.30;;;14.60;54.00;;;;;;5052275;28;20044;-73
2022/01/08 09:37:11;;;;;;;1.75;1.17;;;14.60;62.40;;;;;;5053813;28;20477;-72
2022/01/08 09:39:39;;;;;;;2.58;1.38;;;14.70;62.40;;;;;;5053754;28;20055;-72
2022/01/08 09:42:07;;;;;;;1.92;1.30;;;14.60;54.00;;;;;;5052371;28;20049;-72
2022/01/08 09:44:35;;;;;;;2.35;1.42;;;14.60;57.90;;;;;;5051647;28;20059;-72
2022/01/08 09:47:04;;;;;;;3.40;1.38;;;14.70;55.60;;;;;;5052233;28;20186;-72
2022/01/08 09:49:30;;;;;;;5.45;1.27;;;14.70;62.10;;;;;;5052187;28;20135;-73
2022/01/08 09:51:57;;;;;;;1.25;1.15;;;14.70;62.60;;;;;;5051952;28;20131;-73
2022/01/08 09:54:27;;;;;;;2.28;1.25;;;;;;;;;;5052235;28;20514;-72
2022/01/08 09:56:53;;;;;;;2.70;1.40;;;14.70;62.50;;;;;;5051201;28;20057;-72
2022/01/08 09:59:21;;;;;;;4.63;1.40;;;;;;;;;;5051616;28;20509;-72
2022/01/08 10:01:53;;;;;;;2.22;1.25;;;14.00;62.00;;;;;;5052551;28;20501;-72
2022/01/08 10:04:25;;;;;;;2.33;1.20;;;14.80;62.50;;;;;;5051781;28;20132;-72
2022/01/08 10:06:51;;;;;;;2.67;1.30;;;14.70;62.50;;;;;;5052770;28;20127;-72
2022/01/08 10:09:18;;;;;;;1.73;1.30;;;14.70;62.30;;;;;;5052017;28;20133;-72
2022/01/08 10:11:48;;;;;;;1.80;1.15;;;15.50;58.50;;;;;;5051661;28;20053;-71
2022/01/08 10:14:28;;;;;;;2.30;1.20;;;14.40;60.50;;;;;;5051742;28;20057;-72
2022/01/08 10:19:40;;;;;;;3.28;1.20;;;14.70;62.30;;;;;;5051556;28;20073;-72
2022/01/08 10:22:14;;;;;;;1.60;1.15;;;14.70;62.50;;;;;;5052851;28;20049;-72
2022/01/08 10:24:41;;;;;;;2.13;1.15;;;15.60;59.00;;;;;;5051662;28;20140;-71
2022/01/08 10:27:08;;;;;;;2.00;1.10;;;14.80;62.20;;;;;;5051334;28;20136;-72
2022/01/08 10:29:35;;;;;;;3.00;1.10;;;;;;;;;;5051169;28;20053;-72
2022/01/08 10:32:02;;;;;;;3.95;1.20;;;14.50;62.20;;;;;;5051519;28;20133;-72
2022/01/08 10:34:30;;;;;;;3.70;1.38;;;14.80;53.80;;;;;;5050617;28;20091;-70
2022/01/08 10:37:01;;;;;;;2.70;1.40;;;14.80;62.50;;;;;;5052082;28;20072;-72
2022/01/08 10:39:29;;;;;;;2.22;1.33;;;14.80;62.20;;;;;;5050965;28;20124;-71
2022/01/08 10:41:56;;;;;;;4.30;1.60;;;15.70;59.70;;;;;;5050869;28;20091;-71
2022/01/08 10:44:24;;;;;;;2.22;1.35;;;14.90;62.20;;;;;;5048153;28;20041;-71
2022/01/08 10:46:55;;;;;;;3.20;1.52;;;15.60;62.90;;;;;;5050802;28;20145;-72
2022/01/08 10:49:28;;;;;;;2.08;1.20;;;15.00;62.50;;;;;;5048118;28;20446;-72
2022/01/08 10:51:56;;;;;;;2.83;1.40;;;14.40;62.20;;;;;;5050290;28;20052;-72
2022/01/08 10:54:27;;;;;;;1.77;1.13;;;15.00;62.60;;;;;;5048134;28;20550;-72
2022/01/08 10:56:56;;;;;;;2.67;1.35;;;;;;;;;;5050294;28;20060;-72
2022/01/08 10:59:23;;;;;;;2.72;1.20;;;15.00;62.50;;;;;;5049331;28;20056;-73
2022/01/08 11:01:52;;;;;;;2.70;1.30;;;14.90;53.90;;;;;;5051542;28;20120;-72
2022/01/08 11:04:30;;;;;;;4.63;1.50;;;14.30;62.20;;;;;;5050582;28;20132;-72
2022/01/08 11:06:58;;;;;;;4.80;1.48;;;15.00;62.30;;;;;;5050258;28;20060;-72
2022/01/08 11:09:27;;;;;;;3.22;1.50;;;14.10;61.80;;;;;;5050369;28;20128;-73
2022/01/08 11:11:54;;;;;;;2.33;1.40;;;14.30;62.00;;;;;;5050534;28;20055;-73
2022/01/08 11:17:09;;;;;;;2.35;1.42;;;;;;;;;;5030899;28;20080;-73
2022/01/08 11:19:35;;;;;;;1.75;1.23;;;14.50;61.90;;;;;;5033684;28;20045;-73
2022/01/08 11:22:02;;;;;;;3.65;1.63;;;15.00;62.50;;;;;;5050403;28;20128;-73
2022/01/08 11:24:31;;;;;;;2.47;1.48;;;15.10;59.60;;;;;;5050748;28;20132;-73
2022/01/08 11:26:58;;;;;;;3.08;1.30;;;;;;;;;;5050329;28;20057;-71
2022/01/08 11:29:26;;;;;;;2.53;1.30;;;14.30;62.10;;;;;;5050693;28;20072;-71
2022/01/08 11:31:55;;;;;;;4.10;1.50;;;14.90;53.90;;;;;;5050635;28;20565;-71
2022/01/08 11:34:25;;;;;;;1.90;1.20;;;14.90;62.50;;;;;;5050192;28;20131;-71
2022/01/08 11:36:52;;;;;;;3.55;1.40;;;15.20;62.30;;;;;;5050476;28;20048;-71
2022/01/08 11:39:19;;;;;;;1.65;1.20;;;15.00;53.90;;;;;;5050300;28;20128;-72
2022/01/08 11:41:48;;;;;;;4.22;1.45;;;15.00;62.40;;;;;;5050701;28;20455;-71
2022/01/08 11:44:14;;;;;;;2.55;1.15;;;15.00;62.30;;;;;;5050641;28;20060;-71
2022/01/08 11:46:41;;;;;;;3.00;1.48;;;;;;;;;;5050368;28;20549;-71
2022/01/08 11:49:08;;;;;;;2.53;1.15;;;14.60;62.00;;;;;;5050346;28;20465;-71
2022/01/08 11:51:35;;;;;;;5.07;1.60;;;15.00;62.30;;;;;;5049897;28;20137;-70
2022/01/08 11:54:03;;;;;;;3.40;1.40;;;15.00;58.60;;;;;;5050395;28;20135;-71
2022/01/08 11:56:31;;;;;;;3.33;1.42;;;14.90;54.00;;;;;;5049880;28;20057;-71
2022/01/08 11:59:07;;;;;;;3.47;1.55;;;15.00;54.10;;;;;;5050629;28;20061;-70
2022/01/08 12:01:34;;;;;;;2.90;1.30;;;14.90;54.00;;;;;;5050126;28;20080;-70
2022/01/08 12:04:00;;;;;;;3.20;1.40;;;14.40;62.00;;;;;;5050079;28;20458;-71
2022/01/08 12:06:33;;;;;;;1.50;1.13;;;14.80;62.20;;;;;;5049706;28;20136;-70
2022/01/08 12:09:07;;;;;;;8.75;1.40;;;14.40;56.70;;;;;;5050348;28;20092;-71
2022/01/08 12:11:34;;;;;;;2.83;1.30;;;14.70;56.60;;;;;;5050378;28;20053;-71
2022/01/08 12:14:10;;;;;;;2.20;1.40;;;14.40;62.30;;;;;;5051350;28;20059;-71
2022/01/08 12:16:37;;;;;;;3.58;1.73;;;15.10;62.20;;;;;;5050072;28;20573;-71
2022/01/08 12:19:04;;;;;;;2.53;1.33;;;;;;;;;;5050242;28;20557;-71
2022/01/08 12:21:32;;;;;;;3.15;1.40;;;15.10;62.40;;;;;;5050091;28;20135;-71
2022/01/08 12:23:59;;;;;;;3.22;1.35;;;14.70;62.10;;;;;;5049612;28;20100;-71
2022/01/08 12:26:37;;;;;;;2.22;1.30;;;14.80;56.60;;;;;;5049692;28;20057;-71
2022/01/08 12:29:04;;;;;;;2.65;1.40;;;;;;;;;;5068339;28;20049;-72
2022/01/08 12:31:39;;;;;;;1.60;1.20;;;15.20;62.60;;;;;;5043926;28;20055;-71
2022/01/08 12:34:24;;;;;;;3.67;1.48;;;14.20;62.30;;;;;;5045259;28;20048;-74
2022/01/08 12:36:52;;;;;;;3.63;1.60;;;15.50;60.30;;;;;;5045033;28;20100;-72
2022/01/08 12:39:23;;;;;;;2.92;1.40;;;14.50;59.20;;;;;;5044426;28;20049;-72
2022/01/08 12:41:49;;;;;;;4.60;1.50;;;15.10;62.50;;;;;;5043743;28;20488;-72
2022/01/08 12:44:26;;;;;;;3.50;1.40;;;14.30;62.40;;;;;;5044617;28;20140;-72
2022/01/08 12:46:54;;;;;;;3.50;1.40;;;15.00;54.40;;;;;;5043948;28;20052;-72
2022/01/08 12:49:21;;;;;;;4.47;1.40;;;;;;;;;;5045189;28;20059;-72
2022/01/08 12:52:15;;;;;;;4.07;1.35;;;15.20;62.80;;;;;;5059792;28;20131;-72
2022/01/08 12:54:44;;;;;;;1.88;1.30;;;15.10;62.70;;;;;;5019003;28;20143;-73
2022/01/08 12:57:11;;;;;;;9.23;2.92;;;;;;;;;;5061337;28;20456;-73
2022/01/08 12:59:41;;;;;;;10.75;3.60;;;15.10;59.20;;;;;;5045912;28;20160;-74
2022/01/08 13:02:09;;;;;;;9.55;3.50;;;15.20;59.30;;;;;;5046406;28;20045;-74
2022/01/08 13:04:39;;;;;;;6.65;2.80;;;14.60;62.70;;;;;;5047272;28;20139;-74
2022/01/08 13:07:06;;;;;;;7.22;3.20;;;15.10;62.70;;;;;;5047188;28;20131;-74
2022/01/08 13:09:33;;;;;;;5.15;2.63;;;14.70;62.70;;;;;;5047967;28;20049;-74
2022/01/08 13:12:01;;;;;;;4.93;2.80;;;14.50;55.20;;;;;;5048013;28;20134;-74
2022/01/08 13:14:30;;;;;;;5.88;3.15;;;15.10;62.70;;;;;;5046003;28;20049;-74
2022/01/08 13:16:57;;;;;;;7.18;2.72;;;15.20;62.70;;;;;;5045165;28;20071;-73
2022/01/08 13:19:26;;;;;;;8.05;2.85;;;15.10;54.60;;;;;;5043551;28;20206;-73
2022/01/08 13:21:54;;;;;;;6.55;2.72;;;14.60;62.50;;;;;;5044436;28;20460;-73
2022/01/08 13:24:21;;;;;;;6.88;2.90;;;14.40;62.60;;;;;;5045228;28;20056;-74
2022/01/08 13:26:50;;;;;;;7.60;3.25;;;14.30;62.20;;;;;;5041714;28;20151;-72
2022/01/08 13:29:19;;;;;;;6.90;3.25;;;15.20;63.00;;;;;;5042467;28;20148;-72
2022/01/08 13:31:47;;;;;;;9.85;3.33;;;15.20;54.90;;;;;;5043700;28;20041;-73